Time;durP1;ratioP1;P1;durP2;ratioP2;P2;SDS_P1;SDS_P2;PMS_P1;PMS_P2;Temp;Humidity;BMP_temperature;BMP_pressure;BME280_temperature;BME280_humidity;BME280_pressure;Samples;Min_cycle;Max_cycle;Signal;HPM_P1;HPM_P2
2023/01/04 00:01:02;;;;;;;31.20;16.47;;;;;;;;;;5045109;28;20460;-66
2023/01/04 00:03:28;;;;;;;25.33;15.37;;;;;;;;;;5029332;28;20645;-65
2023/01/04 00:05:53;;;;;;;25.80;16.30;;;;;;;;;;5046243;28;20524;-67
2023/01/04 00:08:19;;;;;;;21.47;15.97;;;;;;;;;;5046805;28;20272;-68
2023/01/04 00:10:44;;;;;;;22.30;14.87;;;;;;;;;;5046725;28;20616;-66
2023/01/04 00:13:10;;;;;;;25.40;15.07;;;;;;;;;;5029466;28;20193;-68
2023/01/04 00:15:35;;;;;;;18.77;13.47;;;;;;;;;;5046594;28;20207;-66
2023/01/04 00:18:01;;;;;;;21.57;13.27;;;;;;;;;;5046179;28;20236;-65
2023/01/04 00:20:26;;;;;;;24.37;13.37;;;;;;;;;;5046549;28;20423;-67
2023/01/04 00:22:52;;;;;;;27.50;14.10;;;;;;;;;;5046334;28;20190;-69
2023/01/04 00:25:17;;;;;;;20.37;14.10;;;;;;;;;;5044036;28;20175;-67
2023/01/04 00:27:42;;;;;;;21.30;15.23;;;;;;;;;;5045941;28;20214;-68
2023/01/04 00:30:08;;;;;;;23.83;16.07;;;;;;;;;;5045316;28;20175;-68
2023/01/04 00:32:34;;;;;;;22.20;14.40;;;;;;;;;;5044601;28;20386;-67
2023/01/04 00:34:59;;;;;;;20.63;13.87;;;;;;;;;;5045312;28;20214;-67
2023/01/04 00:37:24;;;;;;;21.33;14.20;;;;;;;;;;5043025;28;20187;-68
2023/01/04 00:39:50;;;;;;;19.73;13.50;;;;;;;;;;5046621;28;20185;-67
2023/01/04 00:42:15;;;;;;;23.27;14.67;;;;;;;;;;5044794;28;20181;-67
2023/01/04 00:44:41;;;;;;;22.03;15.07;;;;;;;;;;5046012;28;20174;-67
2023/01/04 00:47:06;;;;;;;19.50;13.57;;;;;;;;;;5045711;28;20266;-67
2023/01/04 00:49:32;;;;;;;17.73;13.17;;;;;;;;;;5045507;28;20198;-68
2023/01/04 00:51:58;;;;;;;26.00;13.93;;;;;;;;;;5045799;28;20182;-69
2023/01/04 00:54:23;;;;;;;23.70;13.00;;;;;;;;;;5046200;28;20544;-68
2023/01/04 00:56:49;;;;;;;29.40;14.00;;;;;;;;;;5045365;28;20291;-68
2023/01/04 00:59:17;;;;;;;18.20;12.53;;;;;;;;;;5045652;28;20260;-68
2023/01/04 01:01:42;;;;;;;17.07;12.80;;;;;;;;;;5044743;28;20579;-66
2023/01/04 01:04:11;;;;;;;22.27;13.80;;;;;;;;;;5045796;28;20429;-66
2023/01/04 01:06:36;;;;;;;21.90;13.10;;;;;;;;;;5046643;28;20175;-66
2023/01/04 01:09:02;;;;;;;19.00;12.07;;;;;;;;;;5039260;28;20870;-67
2023/01/04 01:11:29;;;;;;;90.50;17.97;;;;;;;;;;5047050;28;20245;-66
2023/01/04 01:13:55;;;;;;;61.37;15.87;;;;;;;;;;5047631;28;20420;-69
2023/01/04 01:16:22;;;;;;;41.97;12.60;;;;;;;;;;5049930;28;20472;-68
2023/01/04 01:18:48;;;;;;;26.37;11.60;;;;;;;;;;5049695;28;20452;-67
2023/01/04 01:21:26;;;;;;;22.97;11.53;;;;;;;;;;5049269;28;20742;-67
2023/01/04 01:23:53;;;;;;;27.50;12.47;;;;;;;;;;5050217;28;20185;-67
2023/01/04 01:26:20;;;;;;;21.50;10.90;;;;;;;;;;5049973;28;20885;-67
2023/01/04 01:28:46;;;;;;;18.77;10.50;;;;;;;;;;5049731;28;20456;-67
2023/01/04 01:31:18;;;;;;;21.53;10.20;;;;;;;;;;5046931;28;20752;-67
2023/01/04 01:33:45;;;;;;;18.23;9.57;;;;;;;;;;5047849;28;20703;-68
2023/01/04 01:36:12;;;;;;;14.87;9.33;;;;;;;;;;5048158;28;20503;-68
2023/01/04 01:38:38;;;;;;;19.37;9.57;;;;;;;;;;5048397;28;20521;-68
2023/01/04 01:41:06;;;;;;;17.60;8.53;;;;;;;;;;5027944;28;20433;-68
2023/01/04 01:44:29;;;;;;;10.53;8.60;;;;;;;;;;5048308;28;20221;-68
2023/01/04 01:46:55;;;;;;;15.70;8.50;;;;;;;;;;4931401;29;20516;-68
2023/01/04 01:49:31;;;;;;;10.37;7.60;;;;;;;;;;4947720;29;20935;-68
2023/01/04 01:52:01;;;;;;;12.30;9.40;;;;;;;;;;5010676;28;20788;-67
2023/01/04 01:54:32;;;;;;;13.30;7.80;;;;;;;;;;5043833;28;20436;-68
2023/01/04 01:57:01;;;;;;;13.07;8.63;;;;;;;;;;5044816;28;21019;-68
2023/01/04 01:59:28;;;;;;;10.00;6.93;;;;;;;;;;5045813;28;21331;-68
2023/01/04 02:01:54;;;;;;;10.30;8.27;;;;;;;;;;5043886;28;20499;-68
2023/01/04 02:04:19;;;;;;;10.90;7.53;;;;;;;;;;5048020;28;20433;-67
2023/01/04 02:06:49;;;;;;;12.17;7.97;;;;;;;;;;5047648;28;20712;-66
2023/01/04 02:09:16;;;;;;;13.10;8.40;;;;;;;;;;5048105;28;20540;-66
2023/01/04 02:11:41;;;;;;;12.40;8.13;;;;;;;;;;5047035;28;20483;-66
2023/01/04 02:14:26;;;;;;;10.90;7.37;;;;;;;;;;5047977;28;20441;-66
2023/01/04 02:16:55;;;;;;;10.27;8.07;;;;;;;;;;5044628;28;20935;-66
2023/01/04 02:19:51;;;;;;;11.77;8.70;;;;;;;;;;5043418;28;20551;-66
2023/01/04 02:22:38;;;;;;;12.07;7.67;;;;;;;;;;5047206;28;20460;-66
2023/01/04 02:25:21;;;;;;;12.40;8.13;;;;;;;;;;5049500;28;20823;-66
2023/01/04 02:27:56;;;;;;;18.47;9.37;;;;;;;;;;5046272;28;20461;-69
2023/01/04 02:30:31;;;;;;;14.20;8.67;;;;;;;;;;5047185;28;20822;-67
2023/01/04 02:33:12;;;;;;;12.67;9.50;;;;;;;;;;5049746;28;20444;-67
2023/01/04 02:36:18;;;;;;;13.13;9.80;;;;;;;;;;5050132;28;20542;-67
2023/01/04 02:39:04;;;;;;;11.73;8.13;;;;;;;;;;5002162;28;20969;-67
2023/01/04 02:41:48;;;;;;;16.13;9.10;;;;;;;;;;5050847;28;20440;-67
2023/01/04 02:50:29;;;;;;;16.27;9.53;;;;;;;;;;5051299;28;20436;-66
2023/01/04 02:50:31;;;;;;;12.13;8.77;;;;;;;;;;5047697;28;20806;-66
2023/01/04 02:53:15;;;;;;;14.30;7.60;;;;;;;;;;5050212;28;20436;-66
2023/01/04 02:55:46;;;;;;;13.33;8.63;;;;;;;;;;5050528;28;20496;-65
2023/01/04 02:58:36;;;;;;;10.77;7.83;;;;;;;;;;5050127;28;20552;-65
2023/01/04 03:07:03;;;;;;;15.27;9.20;;;;;;;;;;5047605;28;20443;-67
2023/01/04 03:09:34;;;;;;;14.17;8.77;;;;;;;;;;5031823;28;20434;-67
2023/01/04 03:14:53;;;;;;;11.10;8.40;;;;;;;;;;5051633;28;20440;-67
2023/01/04 03:17:22;;;;;;;13.13;7.67;;;;;;;;;;5051575;28;20471;-66
2023/01/04 03:19:53;;;;;;;13.53;8.90;;;;;;;;;;5051756;28;20870;-66
2023/01/04 03:36:31;;;;;;;15.13;9.20;;;;;;;;;;5049696;28;20552;-65
2023/01/04 03:48:30;;;;;;;12.03;7.67;;;;;;;;;;5049522;28;20456;-65
2023/01/04 03:50:59;;;;;;;22.17;7.40;;;;;;;;;;5049257;28;20455;-65
2023/01/04 03:53:25;;;;;;;10.03;7.57;;;;;;;;;;5042780;28;20429;-68
2023/01/04 03:55:52;;;;;;;15.23;7.53;;;;;;;;;;5049501;28;20612;-65
2023/01/04 03:58:19;;;;;;;10.20;7.40;;;;;;;;;;5049347;28;20897;-66
2023/01/04 04:00:45;;;;;;;9.60;6.63;;;;;;;;;;5047881;28;20511;-67
2023/01/04 04:03:11;;;;;;;11.53;7.60;;;;;;;;;;5049692;28;20499;-66
2023/01/04 04:08:28;;;;;;;12.03;7.73;;;;;;;;;;5049759;28;20276;-65
2023/01/04 04:13:42;;;;;;;13.13;8.77;;;;;;;;;;5049256;28;20559;-66
2023/01/04 04:16:08;;;;;;;12.80;7.80;;;;;;;;;;5048754;28;20547;-66
2023/01/04 04:18:33;;;;;;;11.93;7.30;;;;;;;;;;5048685;28;20202;-65
2023/01/04 04:20:59;;;;;;;18.27;9.33;;;;;;;;;;5047394;28;20213;-65
2023/01/04 04:23:24;;;;;;;11.47;8.00;;;;;;;;;;5048371;28;20232;-66
2023/01/04 04:25:50;;;;;;;15.03;8.33;;;;;;;;;;5048525;28;20570;-66
2023/01/04 04:28:15;;;;;;;15.73;8.63;;;;;;;;;;5044848;28;20253;-67
2023/01/04 04:30:40;;;;;;;17.80;8.70;;;;;;;;;;5043067;28;20187;-66
2023/01/04 04:33:06;;;;;;;16.50;9.10;;;;;;;;;;5048277;28;20179;-65
2023/01/04 04:35:31;;;;;;;11.67;7.60;;;;;;;;;;5048089;28;20246;-66
2023/01/04 04:37:56;;;;;;;13.80;8.53;;;;;;;;;;5048513;28;20268;-65
2023/01/04 04:43:07;;;;;;;12.47;8.43;;;;;;;;;;5048060;28;20193;-65
2023/01/04 04:45:33;;;;;;;11.30;7.50;;;;;;;;;;5047853;28;20437;-67
2023/01/04 04:47:58;;;;;;;13.07;7.50;;;;;;;;;;5047898;28;20460;-66
2023/01/04 04:50:23;;;;;;;12.20;8.23;;;;;;;;;;5047571;28;20273;-65
2023/01/04 04:52:49;;;;;;;13.03;7.20;;;;;;;;;;5049085;28;21062;-65
2023/01/04 04:55:14;;;;;;;14.17;8.73;;;;;;;;;;5048309;28;20614;-65
2023/01/04 04:57:40;;;;;;;12.33;7.47;;;;;;;;;;5047841;28;20256;-66
2023/01/04 05:00:07;;;;;;;14.73;7.90;;;;;;;;;;5047376;28;20191;-66
2023/01/04 05:02:32;;;;;;;9.73;7.20;;;;;;;;;;5047956;28;20179;-66
2023/01/04 05:04:57;;;;;;;11.47;6.97;;;;;;;;;;5048422;28;20778;-65
2023/01/04 05:07:23;;;;;;;13.60;7.80;;;;;;;;;;5047831;28;20619;-66
2023/01/04 05:09:48;;;;;;;13.83;8.20;;;;;;;;;;5041861;28;20175;-65
2023/01/04 05:14:58;;;;;;;14.03;7.87;;;;;;;;;;5029298;28;20201;-66
2023/01/04 05:17:23;;;;;;;10.40;7.20;;;;;;;;;;5029639;28;20997;-66
2023/01/04 05:19:48;;;;;;;14.40;8.77;;;;;;;;;;5029609;28;20178;-65
2023/01/04 05:22:14;;;;;;;11.90;7.80;;;;;;;;;;5029322;28;20187;-66
2023/01/04 05:24:39;;;;;;;13.97;8.50;;;;;;;;;;5030347;28;20175;-66
2023/01/04 05:27:04;;;;;;;15.77;9.10;;;;;;;;;;5049531;28;20162;-66
2023/01/04 05:32:14;;;;;;;10.97;8.13;;;;;;;;;;5046654;28;20193;-65
2023/01/04 05:34:39;;;;;;;13.40;8.10;;;;;;;;;;5047193;28;20433;-66
2023/01/04 05:37:05;;;;;;;13.10;8.27;;;;;;;;;;5046278;28;20211;-66
2023/01/04 05:39:30;;;;;;;11.50;7.77;;;;;;;;;;5046106;28;20198;-66
2023/01/04 05:44:39;;;;;;;11.90;7.33;;;;;;;;;;5047155;28;20290;-67
2023/01/04 05:47:05;;;;;;;12.90;8.17;;;;;;;;;;5048863;28;20865;-67
2023/01/04 05:49:30;;;;;;;12.13;8.23;;;;;;;;;;5049171;28;20190;-66
2023/01/04 05:51:55;;;;;;;13.60;7.70;;;;;;;;;;5048023;28;20186;-66
2023/01/04 05:54:21;;;;;;;17.57;8.50;;;;;;;;;;5047664;28;20190;-66
2023/01/04 05:56:46;;;;;;;10.27;7.60;;;;;;;;;;5048124;28;20679;-67
2023/01/04 05:59:12;;;;;;;12.10;7.00;;;;;;;;;;5050947;28;20321;-66
2023/01/04 06:01:37;;;;;;;12.03;6.83;;;;;;;;;;5050160;28;20616;-66
2023/01/04 06:04:02;;;;;;;10.63;7.50;;;;;;;;;;5051801;28;20183;-67
2023/01/04 06:06:28;;;;;;;9.90;7.37;;;;;;;;;;5051718;28;20178;-66
2023/01/04 06:08:53;;;;;;;11.33;8.20;;;;;;;;;;5050814;28;20199;-67
2023/01/04 06:11:19;;;;;;;22.03;8.87;;;;;;;;;;5050746;28;20182;-68
2023/01/04 06:13:44;;;;;;;14.57;7.23;;;;;;;;;;5050086;28;20563;-67
2023/01/04 06:16:09;;;;;;;10.37;7.33;;;;;;;;;;5050868;28;20334;-66
2023/01/04 06:18:35;;;;;;;13.27;7.90;;;;;;;;;;5050851;28;20194;-68
2023/01/04 06:21:00;;;;;;;9.53;6.20;;;;;;;;;;5049066;28;20190;-67
2023/01/04 06:23:25;;;;;;;10.10;8.00;;;;;;;;;;5051524;28;20986;-67
2023/01/04 06:25:51;;;;;;;14.70;9.63;;;;;;;;;;5050998;28;20183;-67
2023/01/04 06:28:16;;;;;;;9.77;7.67;;;;;;;;;;5051396;28;20206;-66
2023/01/04 06:30:42;;;;;;;9.30;7.70;;;;;;;;;;5050902;28;20226;-67
2023/01/04 06:33:07;;;;;;;12.80;7.93;;;;;;;;;;5050727;28;20179;-67
2023/01/04 06:35:34;;;;;;;20.33;9.53;;;;;;;;;;5050935;28;20292;-67
2023/01/04 06:38:00;;;;;;;17.93;8.50;;;;;;;;;;5033100;28;20227;-67
2023/01/04 06:40:25;;;;;;;16.03;8.13;;;;;;;;;;5048565;28;20520;-67
2023/01/04 06:42:51;;;;;;;13.83;7.77;;;;;;;;;;5050831;28;20627;-66
2023/01/04 06:45:16;;;;;;;13.40;8.60;;;;;;;;;;5048696;28;20187;-67
2023/01/04 06:47:42;;;;;;;21.53;8.80;;;;;;;;;;5050532;28;20562;-67
2023/01/04 06:50:08;;;;;;;16.83;7.83;;;;;;;;;;5050907;28;20182;-66
2023/01/04 06:52:34;;;;;;;12.33;7.30;;;;;;;;;;5050421;28;20191;-67
2023/01/04 06:55:00;;;;;;;13.03;8.10;;;;;;;;;;5042916;28;20567;-67
2023/01/04 06:57:26;;;;;;;18.10;7.90;;;;;;;;;;5034823;28;20256;-67
2023/01/04 06:59:51;;;;;;;24.00;8.83;;;;;;;;;;5049235;28;20202;-65
2023/01/04 07:02:17;;;;;;;17.93;8.00;;;;;;;;;;5050226;28;20661;-64
2023/01/04 07:04:42;;;;;;;22.63;7.93;;;;;;;;;;5049638;28;20349;-64
2023/01/04 07:07:08;;;;;;;16.13;8.33;;;;;;;;;;5050238;28;20178;-64
2023/01/04 07:09:34;;;;;;;13.43;7.73;;;;;;;;;;5042856;28;20239;-64
2023/01/04 07:12:00;;;;;;;44.80;13.17;;;;;;;;;;5050623;28;20198;-63
2023/01/04 07:14:25;;;;;;;26.57;9.30;;;;;;;;;;5031383;28;20929;-63
2023/01/04 07:16:51;;;;;;;18.17;7.60;;;;;;;;;;5031487;28;20252;-63
2023/01/04 07:19:16;;;;;;;16.90;6.13;;;;;;;;;;5031523;28;20187;-64
2023/01/04 07:21:42;;;;;;;23.17;8.47;;;;;;;;;;5030991;28;20612;-65
2023/01/04 07:24:07;;;;;;;37.43;10.80;;;;;;;;;;5031560;28;20597;-65
2023/01/04 07:26:34;;;;;;;34.27;9.37;;;;;;;;;;5051288;28;20280;-65
2023/01/04 07:29:15;;;;;;;11.07;6.27;;;;;;;;;;5051458;28;20663;-63
2023/01/04 07:31:48;;;;;;;12.20;6.60;;;;;;;;;;5047219;28;20464;-62
2023/01/04 07:34:14;;;;;;;8.80;6.80;;;;;;;;;;5031168;28;20551;-64
2023/01/04 07:36:40;;;;;;;8.33;5.83;;;;;;;;;;5048747;28;20462;-65
2023/01/04 07:39:27;;;;;;;31.43;8.20;;;;;;;;;;5047399;28;20933;-64
2023/01/04 07:41:52;;;;;;;14.07;6.90;;;;;;;;;;4967450;28;20201;-64
2023/01/04 07:44:18;;;;;;;34.93;9.57;;;;;;;;;;4971861;28;20462;-65
2023/01/04 07:46:43;;;;;;;16.13;6.43;;;;;;;;;;4970146;28;20556;-64
2023/01/04 07:49:15;;;;;;;8.83;6.80;;;;;;;;;;4972885;28;20317;-65
2023/01/04 07:51:40;;;;;;;16.23;7.33;;;;;;;;;;4970031;28;20186;-65
2023/01/04 07:54:06;;;;;;;27.23;7.93;;;;;;;;;;4968803;28;20448;-65
2023/01/04 07:56:31;;;;;;;24.30;7.60;;;;;;;;;;4964551;28;20300;-64
2023/01/04 07:58:58;;;;;;;10.13;7.43;;;;;;;;;;4971273;28;20213;-64
2023/01/04 08:01:24;;;;;;;9.03;5.80;;;;;;;;;;4968067;28;20710;-64
2023/01/04 08:03:51;;;;;;;13.73;7.30;;;;;;;;;;4964642;28;20528;-65
2023/01/04 08:06:19;;;;;;;15.50;7.00;;;;;;;;;;4972500;28;20448;-64
2023/01/04 08:08:44;;;;;;;63.83;12.43;;;;;;;;;;4969306;28;20461;-64
2023/01/04 08:11:15;;;;;;;7.83;6.23;;;;;;;;;;4971723;28;20950;-64
2023/01/04 08:13:42;;;;;;;11.20;7.23;;;;;;;;;;4966048;28;20177;-64
2023/01/04 08:16:11;;;;;;;9.93;6.90;;;;;;;;;;4974423;28;20506;-64
2023/01/04 08:18:36;;;;;;;51.83;13.57;;;;;;;;;;5006729;28;20437;-64
2023/01/04 08:21:06;;;;;;;11.10;7.47;;;;;;;;;;5047981;28;20420;-64
2023/01/04 08:23:33;;;;;;;15.17;8.13;;;;;;;;;;5045460;28;20669;-64
2023/01/04 08:26:04;;;;;;;10.63;7.30;;;;;;;;;;5050812;28;20440;-63
2023/01/04 08:28:30;;;;;;;37.17;11.10;;;;;;;;;;5048037;28;20968;-66
2023/01/04 08:30:55;;;;;;;22.30;8.30;;;;;;;;;;5047548;28;20433;-64
2023/01/04 08:33:20;;;;;;;10.90;7.00;;;;;;;;;;5047843;28;20495;-63
2023/01/04 08:35:46;;;;;;;13.83;9.10;;;;;;;;;;5047710;28;20655;-66
2023/01/04 08:38:11;;;;;;;10.50;7.17;;;;;;;;;;5029502;28;20203;-64
2023/01/04 08:40:36;;;;;;;17.10;7.33;;;;;;;;;;5027613;28;20636;-66
2023/01/04 08:43:02;;;;;;;11.63;7.40;;;;;;;;;;5047491;28;20186;-66
2023/01/04 08:45:28;;;;;;;11.77;7.30;;;;;;;;;;5044704;28;20198;-65
2023/01/04 08:47:53;;;;;;;9.20;7.03;;;;;;;;;;5046656;28;20280;-66
2023/01/04 08:50:20;;;;;;;11.93;8.40;;;;;;;;;;5047935;28;20413;-64
2023/01/04 08:52:46;;;;;;;18.93;8.30;;;;;;;;;;5048769;28;20171;-68
2023/01/04 08:55:11;;;;;;;14.70;10.10;;;;;;;;;;5048337;28;20454;-64
2023/01/04 08:57:37;;;;;;;20.07;8.63;;;;;;;;;;5049398;28;20206;-63
2023/01/04 09:00:03;;;;;;;102.70;16.50;;;;;;;;;;5048911;28;20217;-64
2023/01/04 09:02:29;;;;;;;40.70;11.10;;;;;;;;;;5033732;28;20189;-64
2023/01/04 09:04:58;;;;;;;59.57;10.20;;;;;;;;;;5041201;28;20810;-65
2023/01/04 09:07:30;;;;;;;12.20;7.40;;;;;;;;;;5042126;28;20179;-65
2023/01/04 09:09:56;;;;;;;12.30;6.70;;;;;;;;;;5041457;28;20429;-63
2023/01/04 09:12:22;;;;;;;14.80;7.40;;;;;;;;;;5028355;28;20472;-65
2023/01/04 09:14:48;;;;;;;19.50;8.50;;;;;;;;;;5027540;28;20215;-64
2023/01/04 09:17:13;;;;;;;11.73;6.60;;;;;;;;;;5028763;28;21099;-65
2023/01/04 09:19:38;;;;;;;7.90;6.27;;;;;;;;;;5029813;28;20192;-65
2023/01/04 09:22:04;;;;;;;8.93;5.80;;;;;;;;;;5029196;28;20175;-65
2023/01/04 09:24:31;;;;;;;8.90;6.20;;;;;;;;;;5012029;28;20171;-65
2023/01/04 09:26:57;;;;;;;26.60;7.97;;;;;;;;;;5029831;28;20532;-65
2023/01/04 09:29:23;;;;;;;18.00;7.83;;;;;;;;;;5030054;28;20449;-64
2023/01/04 09:31:49;;;;;;;7.53;6.03;;;;;;;;;;5028998;28;20179;-64
2023/01/04 09:34:14;;;;;;;12.90;7.43;;;;;;;;;;5033979;28;20179;-64
2023/01/04 09:36:40;;;;;;;7.70;5.47;;;;;;;;;;5033659;28;20195;-65
2023/01/04 09:39:05;;;;;;;9.37;6.47;;;;;;;;;;5037339;28;20210;-64
2023/01/04 09:41:37;;;;;;;7.27;6.23;;;;;;;;;;5026140;28;20183;-64
2023/01/04 09:44:08;;;;;;;10.63;6.13;;;;;;;;;;5029114;28;20187;-64
2023/01/04 09:46:47;;;;;;;9.47;6.60;;;;;;;;;;5027984;28;20530;-64
2023/01/04 09:49:16;;;;;;;23.03;8.50;;;;;;;;;;5022586;28;20486;-65
2023/01/04 09:51:51;;;;;;;8.23;6.30;;;;;;;;;;5026824;28;20541;-65
2023/01/04 09:54:20;;;;;;;10.33;6.13;;;;;;;;;;5018835;28;20748;-64
2023/01/04 09:56:57;;;;;;;17.90;6.70;;;;;;;;;;5036121;28;20460;-66
2023/01/04 09:59:29;;;;;;;13.73;7.50;;;;;;;;;;5014182;28;20996;-64
2023/01/04 10:01:59;;;;;;;15.03;6.87;;;;;;;;;;5024338;28;20446;-65
2023/01/04 10:04:43;;;;;;;10.37;5.97;;;;;;;;;;5030704;28;20555;-64
2023/01/04 10:07:29;;;;;;;55.67;10.40;;;;;;;;;;5031994;28;20469;-64
2023/01/04 10:09:55;;;;;;;16.03;6.90;;;;;;;;;;5035755;28;20576;-65
2023/01/04 10:12:30;;;;;;;16.53;6.60;;;;;;;;;;5031449;28;20946;-64
2023/01/04 10:15:10;;;;;;;28.23;6.87;;;;;;;;;;5010485;28;20183;-64
2023/01/04 10:17:45;;;;;;;19.97;7.00;;;;;;;;;;5031601;28;20524;-64
2023/01/04 10:20:29;;;;;;;28.43;7.50;;;;;;;;;;5036845;28;20429;-65
2023/01/04 10:23:18;;;;;;;14.13;6.93;;;;;;;;;;5032487;28;20790;-64
2023/01/04 10:25:56;;;;;;;6.00;4.87;;;;;;;;;;5031337;28;20541;-65
2023/01/04 10:28:42;;;;;;;6.70;5.43;;;;;;;;;;5032279;28;20453;-63
2023/01/04 10:31:17;;;;;;;19.00;6.40;;;;;;;;;;5037939;28;20852;-65
2023/01/04 10:34:11;;;;;;;14.73;7.70;;;;;;;;;;5032601;28;20752;-65
2023/01/04 10:36:37;;;;;;;9.40;5.93;;;;;;;;;;5021551;28;20470;-63
2023/01/04 10:39:11;;;;;;;7.37;5.30;;;;;;;;;;5032498;28;20537;-64
2023/01/04 10:42:16;;;;;;;21.63;7.80;;;;;;;;;;5032563;28;20166;-64
2023/01/04 10:45:12;;;;;;;34.07;6.60;;;;;;;;;;5026384;28;20447;-63
2023/01/04 10:47:47;;;;;;;15.67;5.47;;;;;;;;;;5034429;28;20437;-65
2023/01/04 10:50:23;;;;;;;5.77;3.97;;;;;;;;;;5036345;28;20464;-64
2023/01/04 10:52:59;;;;;;;15.87;4.97;;;;;;;;;;5032351;28;20829;-64
2023/01/04 10:55:33;;;;;;;9.70;4.47;;;;;;;;;;5031393;28;20465;-63
2023/01/04 10:58:09;;;;;;;8.27;4.10;;;;;;;;;;5035164;28;20527;-65
2023/01/04 11:00:53;;;;;;;10.80;5.10;;;;;;;;;;5038143;28;20524;-65
2023/01/04 11:03:26;;;;;;;18.40;5.20;;;;;;;;;;5029389;28;20439;-65
2023/01/04 11:05:59;;;;;;;6.00;4.30;;;;;;;;;;5024247;28;20430;-64
2023/01/04 11:08:58;;;;;;;5.13;3.57;;;;;;;;;;5031232;28;21052;-64
2023/01/04 11:11:33;;;;;;;5.93;3.87;;;;;;;;;;5008006;28;20506;-64
2023/01/04 11:13:59;;;;;;;7.60;4.03;;;;;;;;;;5036476;28;20497;-65
2023/01/04 11:16:25;;;;;;;8.27;3.73;;;;;;;;;;5030742;28;20451;-64
2023/01/04 11:18:51;;;;;;;13.40;4.27;;;;;;;;;;5025308;28;20199;-65
2023/01/04 11:21:26;;;;;;;10.97;4.17;;;;;;;;;;5013964;28;20806;-64
2023/01/04 11:23:52;;;;;;;5.30;3.57;;;;;;;;;;5030837;28;20468;-65
2023/01/04 11:26:23;;;;;;;15.03;5.53;;;;;;;;;;5032516;28;20437;-65
2023/01/04 11:28:59;;;;;;;7.30;3.50;;;;;;;;;;5031512;28;20223;-64
2023/01/04 11:31:45;;;;;;;6.20;2.90;;;;;;;;;;5030201;28;20441;-63
2023/01/04 11:34:11;;;;;;;11.53;3.80;;;;;;;;;;5031186;28;20449;-64
2023/01/04 11:36:44;;;;;;;9.73;3.53;;;;;;;;;;5030370;28;20468;-64
2023/01/04 11:39:17;;;;;;;21.77;5.00;;;;;;;;;;5035243;28;20660;-62
2023/01/04 11:42:03;;;;;;;8.70;3.73;;;;;;;;;;5029557;28;20786;-64
2023/01/04 11:44:33;;;;;;;5.63;3.13;;;;;;;;;;5023988;28;20848;-63
2023/01/04 11:47:27;;;;;;;12.43;3.43;;;;;;;;;;5031227;28;20437;-63
2023/01/04 11:49:53;;;;;;;5.13;3.37;;;;;;;;;;5027690;28;21117;-63
2023/01/04 11:52:36;;;;;;;22.10;4.50;;;;;;;;;;5019393;28;20563;-63
2023/01/04 11:55:25;;;;;;;9.10;3.80;;;;;;;;;;5028095;28;20445;-66
2023/01/04 11:58:11;;;;;;;9.30;4.00;;;;;;;;;;5031511;28;20481;-65
2023/01/04 12:00:37;;;;;;;13.60;5.10;;;;;;;;;;5013579;28;20430;-64
2023/01/04 12:03:14;;;;;;;13.87;4.30;;;;;;;;;;5011285;28;20419;-64
2023/01/04 12:05:40;;;;;;;37.53;6.50;;;;;;;;;;5025822;28;21010;-64
2023/01/04 12:08:06;;;;;;;14.50;3.90;;;;;;;;;;5030731;28;20533;-64
2023/01/04 12:10:31;;;;;;;21.40;5.20;;;;;;;;;;5029215;28;20529;-65
2023/01/04 12:12:59;;;;;;;4.33;3.00;;;;;;;;;;5020426;28;20543;-64
2023/01/04 12:15:44;;;;;;;18.13;4.10;;;;;;;;;;5029392;28;20176;-65
2023/01/04 12:18:20;;;;;;;18.10;4.30;;;;;;;;;;5024449;28;21081;-64
2023/01/04 12:20:45;;;;;;;12.53;4.40;;;;;;;;;;5027451;28;20785;-64
2023/01/04 12:23:12;;;;;;;12.90;3.97;;;;;;;;;;5026285;28;20445;-64
2023/01/04 12:25:44;;;;;;;7.70;4.10;;;;;;;;;;5030799;28;20171;-65
2023/01/04 12:28:43;;;;;;;7.90;3.60;;;;;;;;;;5026043;28;20453;-66
2023/01/04 12:31:17;;;;;;;7.60;3.70;;;;;;;;;;5011187;28;20446;-65
2023/01/04 12:33:55;;;;;;;6.23;3.10;;;;;;;;;;5026616;28;20437;-65
2023/01/04 12:36:40;;;;;;;3.57;2.30;;;;;;;;;;5028474;28;20470;-64
2023/01/04 12:39:14;;;;;;;4.53;2.50;;;;;;;;;;5023300;28;20450;-64
2023/01/04 12:41:40;;;;;;;4.27;3.00;;;;;;;;;;5032472;28;20441;-63
2023/01/04 12:44:41;;;;;;;4.93;2.27;;;;;;;;;;5042900;28;20438;-65
2023/01/04 12:50:10;;;;;;;8.70;2.93;;;;;;;;;;5028719;28;20444;-65
2023/01/04 12:52:48;;;;;;;3.23;2.27;;;;;;;;;;5030638;28;20433;-63
2023/01/04 12:55:30;;;;;;;5.03;2.67;;;;;;;;;;5032534;28;20406;-64
2023/01/04 12:57:57;;;;;;;4.40;2.60;;;;;;;;;;5033325;28;20469;-65
2023/01/04 13:00:51;;;;;;;2.50;2.17;;;;;;;;;;5027628;28;20457;-65
2023/01/04 13:03:16;;;;;;;2.43;2.10;;;;;;;;;;5035762;28;20426;-64
2023/01/04 13:05:45;;;;;;;3.00;2.33;;;;;;;;;;5014385;28;20422;-64
2023/01/04 13:08:13;;;;;;;3.10;2.30;;;;;;;;;;5029095;28;20238;-64
2023/01/04 13:10:45;;;;;;;3.93;2.63;;;;;;;;;;5027741;28;20485;-64
2023/01/04 13:13:48;;;;;;;3.80;3.03;;;;;;;;;;5027638;28;20449;-63
2023/01/04 13:16:25;;;;;;;4.30;2.40;;;;;;;;;;5029324;28;20485;-63
2023/01/04 13:18:55;;;;;;;6.40;3.00;;;;;;;;;;5025522;28;21002;-64
2023/01/04 13:21:28;;;;;;;10.20;2.33;;;;;;;;;;5030879;28;20468;-64
2023/01/04 13:23:59;;;;;;;7.67;2.73;;;;;;;;;;5021088;28;20761;-65
2023/01/04 13:26:33;;;;;;;35.93;7.83;;;;;;;;;;5020848;28;20446;-66
2023/01/04 13:29:15;;;;;;;11.93;3.83;;;;;;;;;;5028668;28;20497;-65
2023/01/04 13:31:56;;;;;;;7.47;2.80;;;;;;;;;;5030089;28;20869;-65
2023/01/04 13:34:48;;;;;;;5.27;3.10;;;;;;;;;;5030686;28;20497;-65
2023/01/04 13:37:41;;;;;;;3.47;2.60;;;;;;;;;;5026619;28;20466;-65
2023/01/04 13:40:12;;;;;;;7.63;3.23;;;;;;;;;;5022964;28;20439;-64
2023/01/04 13:42:41;;;;;;;9.93;3.60;;;;;;;;;;5029220;28;21221;-64
2023/01/04 13:45:14;;;;;;;7.40;3.70;;;;;;;;;;5032137;28;20457;-64
2023/01/04 13:47:41;;;;;;;6.00;4.30;;;;;;;;;;5026861;28;20454;-65
2023/01/04 13:50:25;;;;;;;29.60;5.10;;;;;;;;;;5021617;28;20487;-64
2023/01/04 13:52:50;;;;;;;23.73;6.10;;;;;;;;;;5024405;28;20505;-64
2023/01/04 13:55:20;;;;;;;9.30;4.50;;;;;;;;;;5026576;28;20997;-65
2023/01/04 13:57:59;;;;;;;7.93;3.70;;;;;;;;;;5026563;28;20211;-65
2023/01/04 14:00:35;;;;;;;6.40;4.47;;;;;;;;;;5021036;28;20464;-66
2023/01/04 14:03:24;;;;;;;12.33;5.90;;;;;;;;;;5026210;28;20969;-66
2023/01/04 14:05:53;;;;;;;15.10;5.63;;;;;;;;;;5027874;28;20453;-67
2023/01/04 14:08:45;;;;;;;10.03;5.33;;;;;;;;;;5022124;28;20454;-67
2023/01/04 14:11:57;;;;;;;10.10;4.80;;;;;;;;;;5024932;28;20823;-68
2023/01/04 14:14:34;;;;;;;17.27;5.57;;;;;;;;;;5029741;28;20912;-69
2023/01/04 14:17:11;;;;;;;6.10;4.20;;;;;;;;;;5034790;28;20539;-68
2023/01/04 14:19:39;;;;;;;7.97;4.43;;;;;;;;;;5023945;28;20806;-68
2023/01/04 14:22:39;;;;;;;9.43;4.80;;;;;;;;;;5034164;28;20451;-66
2023/01/04 14:25:32;;;;;;;9.10;4.67;;;;;;;;;;5003914;28;20471;-68
2023/01/04 14:28:29;;;;;;;10.37;6.00;;;;;;;;;;5030386;28;20802;-68
2023/01/04 14:31:02;;;;;;;21.27;5.97;;;;;;;;;;5028794;28;20440;-69
2023/01/04 14:33:34;;;;;;;12.90;5.00;;;;;;;;;;5036812;28;20453;-68
2023/01/04 14:36:08;;;;;;;10.83;5.17;;;;;;;;;;5034994;28;20461;-68
2023/01/04 14:38:37;;;;;;;8.40;4.47;;;;;;;;;;5031217;28;20868;-69
2023/01/04 14:41:14;;;;;;;11.77;4.40;;;;;;;;;;5018456;28;20562;-67
2023/01/04 14:43:45;;;;;;;6.50;4.27;;;;;;;;;;5031107;28;20437;-66
2023/01/04 14:46:10;;;;;;;5.33;3.67;;;;;;;;;;5030791;28;20467;-68
2023/01/04 14:48:36;;;;;;;29.60;6.80;;;;;;;;;;5033796;28;20469;-67
2023/01/04 14:51:03;;;;;;;7.03;4.13;;;;;;;;;;5036459;28;20647;-66
2023/01/04 14:53:28;;;;;;;5.90;3.40;;;;;;;;;;5031068;28;20183;-69
2023/01/04 14:55:54;;;;;;;14.60;5.23;;;;;;;;;;5036056;28;20453;-68
2023/01/04 14:58:20;;;;;;;14.50;4.60;;;;;;;;;;5034180;28;20210;-66
2023/01/04 15:00:46;;;;;;;13.97;5.50;;;;;;;;;;5037789;28;20186;-67
2023/01/04 15:03:11;;;;;;;15.80;4.60;;;;;;;;;;5031923;28;20441;-68
2023/01/04 15:05:37;;;;;;;7.10;4.43;;;;;;;;;;5029625;28;20172;-67
2023/01/04 15:08:02;;;;;;;11.38;4.32;;;;;;;;;;5034596;28;20498;-68
2023/01/04 15:10:29;;;;;;;22.70;6.07;;;;;;;;;;5030333;28;20270;-68
2023/01/04 15:12:57;;;;;;;6.50;3.47;;;;;;;;;;5031119;28;20175;-67
2023/01/04 15:15:23;;;;;;;8.00;4.23;;;;;;;;;;5027449;28;20442;-68
2023/01/04 15:17:48;;;;;;;4.13;3.27;;;;;;;;;;5031595;28;20466;-67
2023/01/04 15:20:14;;;;;;;4.07;3.03;;;;;;;;;;5030642;28;20199;-68
2023/01/04 15:22:40;;;;;;;6.47;4.07;;;;;;;;;;5030419;28;20702;-68
2023/01/04 15:25:06;;;;;;;5.10;3.63;;;;;;;;;;5037251;28;20262;-66
2023/01/04 15:27:32;;;;;;;4.10;3.60;;;;;;;;;;5037025;28;20206;-66
2023/01/04 15:29:57;;;;;;;7.20;4.20;;;;;;;;;;5034001;28;20525;-67
2023/01/04 15:32:23;;;;;;;9.43;5.43;;;;;;;;;;5028250;28;20521;-68
2023/01/04 15:34:49;;;;;;;5.50;4.37;;;;;;;;;;5031811;28;20675;-67
2023/01/04 15:37:15;;;;;;;7.70;4.23;;;;;;;;;;5029415;28;20202;-68
2023/01/04 15:39:40;;;;;;;7.40;4.80;;;;;;;;;;5030184;28;20195;-67
2023/01/04 15:43:06;;;;;;;7.43;4.80;;;;;;;;;;5034749;28;20179;-67
2023/01/04 15:45:00;;;;;;;5.60;3.87;;;;;;;;;;5019854;28;20539;-69
2023/01/04 15:47:28;;;;;;;14.97;4.33;;;;;;;;;;5030056;28;20431;-67